Time;durP1;ratioP1;P1;durP2;ratioP2;P2;SDS_P1;SDS_P2;PMS_P1;PMS_P2;Temp;Humidity;BMP_temperature;BMP_pressure;BME280_temperature;BME280_humidity;BME280_pressure;Samples;Min_cycle;Max_cycle;Signal;HPM_P1;HPM_P2
2021/12/10 00:01:36;;;;;;;62.10;41.30;;;;;;;6.47;85.50;98700.47;5113191;28;20271;-58
2021/12/10 00:04:06;;;;;;;63.00;41.53;;;;;;;6.42;85.73;98702.09;5096885;28;20186;-58
2021/12/10 00:06:36;;;;;;;62.20;40.80;;;;;;;6.45;85.58;98697.03;5092769;28;20206;-58
2021/12/10 00:09:08;;;;;;;65.20;41.83;;;;;;;6.50;85.85;98710.75;5092589;28;20195;-58
2021/12/10 00:11:39;;;;;;;60.47;41.20;;;;;;;6.51;85.14;98703.09;5092446;28;20289;-58
2021/12/10 00:14:07;;;;;;;65.33;42.43;;;;;;;6.53;85.62;98706.56;5092575;28;20281;-58
2021/12/10 00:16:35;;;;;;;66.43;42.73;;;;;;;6.59;85.25;98699.84;5092488;28;20204;-58
2021/12/10 00:19:15;;;;;;;60.70;41.47;;;;;;;6.48;84.87;98674.16;5092199;28;20718;-58
2021/12/10 00:21:43;;;;;;;61.70;40.67;;;;;;;6.67;85.12;98703.41;5092271;28;20211;-58
2021/12/10 00:24:12;;;;;;;61.03;40.13;;;;;;;6.62;84.58;98705.03;5091718;28;20312;-58
2021/12/10 00:26:40;;;;;;;60.30;39.63;;;;;;;6.63;84.23;98711.81;5092309;28;20242;-58
2021/12/10 00:29:08;;;;;;;65.33;42.70;;;;;;;6.59;83.90;98707.50;5092190;28;20202;-58
2021/12/10 00:31:48;;;;;;;58.40;40.17;;;;;;;6.62;84.01;98684.63;5091830;28;20225;-58
2021/12/10 00:34:21;;;;;;;63.00;40.57;;;;;;;6.64;84.38;98667.63;5072066;28;20199;-58
2021/12/10 00:36:51;;;;;;;58.43;41.13;;;;;;;6.67;83.96;98690.66;5101813;28;20207;-58
2021/12/10 00:39:22;;;;;;;58.10;39.03;;;;;;;6.63;84.50;98676.09;5112217;28;20281;-58
2021/12/10 00:41:49;;;;;;;61.17;41.93;;;;;;;6.54;84.04;98649.59;5093094;28;20221;-58
2021/12/10 00:44:17;;;;;;;65.77;43.50;;;;;;;6.57;84.51;98656.44;5108056;28;20649;-58
2021/12/10 00:46:44;;;;;;;54.47;40.07;;;;;;;6.58;84.84;98667.50;5112219;28;20195;-58
2021/12/10 00:49:11;;;;;;;62.40;41.93;;;;;;;6.57;84.67;98640.25;5112316;28;20328;-58
2021/12/10 00:51:39;;;;;;;64.53;42.33;;;;;;;6.59;84.63;98664.13;5112126;28;20190;-58
2021/12/10 00:54:08;;;;;;;61.90;42.60;;;;;;;6.63;84.67;98663.34;5112215;28;20188;-58
2021/12/10 00:56:37;;;;;;;63.70;41.87;;;;;;;6.53;84.73;98681.06;5111913;28;20289;-58
2021/12/10 00:59:05;;;;;;;67.80;43.13;;;;;;;6.44;84.79;98670.66;5111648;28;20277;-57
2021/12/10 01:01:34;;;;;;;63.37;41.27;;;;;;;6.43;84.72;98645.97;5112015;28;20242;-58
2021/12/10 01:04:06;;;;;;;62.37;42.07;;;;;;;6.46;85.30;98663.91;5111991;28;20209;-58
2021/12/10 01:06:34;;;;;;;63.33;41.10;;;;;;;6.45;85.23;98646.88;5111843;28;20282;-58
2021/12/10 01:09:09;;;;;;;66.27;42.43;;;;;;;6.47;85.76;98654.56;5111572;28;20743;-58
2021/12/10 01:11:42;;;;;;;60.37;39.80;;;;;;;6.44;86.22;98662.16;5111604;28;20254;-58
2021/12/10 01:14:18;;;;;;;61.33;40.87;;;;;;;6.33;85.98;98650.88;5111488;28;20196;-57
2021/12/10 01:25:12;;;;;;;63.47;40.87;;;;;;;6.45;86.71;98605.19;5111438;28;20240;-58
2021/12/10 01:27:44;;;;;;;67.63;42.03;;;;;;;6.28;87.55;98629.53;5111305;28;20279;-58
2021/12/10 01:30:18;;;;;;;69.00;40.97;;;;;;;6.34;88.79;98622.88;5110945;28;20222;-58
2021/12/10 01:32:50;;;;;;;73.50;42.67;;;;;;;6.39;89.38;98605.94;5111593;28;20292;-58
2021/12/10 01:35:22;;;;;;;70.67;42.77;;;;;;;6.46;89.09;98610.31;5070472;28;20689;-58
2021/12/10 01:37:50;;;;;;;65.50;40.83;;;;;;;6.53;89.76;98603.66;5070803;28;20257;-58
2021/12/10 01:40:20;;;;;;;63.33;40.53;;;;;;;6.56;89.19;98574.75;5070652;28;20282;-58
2021/12/10 01:42:52;;;;;;;61.77;39.97;;;;;;;6.57;89.14;98594.31;5070559;28;20326;-58
2021/12/10 01:45:22;;;;;;;66.10;40.40;;;;;;;6.59;88.86;98613.09;5070554;28;20201;-58
2021/12/10 01:47:55;;;;;;;64.47;41.30;;;;;;;6.65;88.95;98588.53;5094629;28;20208;-58
2021/12/10 01:50:23;;;;;;;65.23;40.97;;;;;;;6.65;89.06;98560.44;5111141;28;20202;-58
2021/12/10 01:52:53;;;;;;;71.97;42.57;;;;;;;6.66;88.81;98572.38;5110972;28;20187;-58
2021/12/10 01:55:21;;;;;;;70.00;42.23;;;;;;;6.64;88.81;98557.88;5110844;28;20199;-58
2021/12/10 01:57:51;;;;;;;75.00;42.03;;;;;;;6.67;89.05;98546.03;5111188;28;20618;-58
2021/12/10 02:00:22;;;;;;;61.33;41.10;;;;;;;6.68;88.59;98529.00;5110943;28;20204;-58
2021/12/10 02:02:50;;;;;;;80.43;43.83;;;;;;;6.67;89.15;98558.81;5111046;28;20195;-58
2021/12/10 02:05:18;;;;;;;68.70;41.27;;;;;;;6.65;88.74;98531.53;5110912;28;20190;-58
2021/12/10 02:07:46;;;;;;;68.77;40.73;;;;;;;6.63;89.12;98515.31;5110981;28;20187;-58
2021/12/10 02:10:19;;;;;;;71.17;42.53;;;;;;;6.66;88.37;98533.25;5111250;28;20302;-58
2021/12/10 02:12:47;;;;;;;77.70;42.43;;;;;;;6.63;88.77;98505.13;5110545;28;20191;-58
2021/12/10 02:15:17;;;;;;;79.77;44.40;;;;;;;6.64;88.99;98494.09;5110817;28;20192;-58
2021/12/10 02:17:48;;;;;;;78.03;44.13;;;;;;;6.65;88.85;98526.44;5110576;28;20652;-58
2021/12/10 02:20:19;;;;;;;73.00;43.07;;;;;;;6.60;90.08;98497.41;5110829;28;20538;-58
2021/12/10 02:22:48;;;;;;;81.03;45.07;;;;;;;6.36;89.91;98446.88;5110915;28;20190;-58
2021/12/10 02:25:18;;;;;;;75.20;43.70;;;;;;;6.61;89.78;98517.00;5110733;28;20204;-57
2021/12/10 02:27:45;;;;;;;71.83;43.43;;;;;;;6.59;90.13;98482.97;5110856;28;20183;-58
2021/12/10 02:30:16;;;;;;;77.33;43.93;;;;;;;6.58;90.79;98520.38;5110367;28;20315;-58
2021/12/10 02:32:43;;;;;;;75.87;41.33;;;;;;;6.44;91.36;98527.78;5110632;28;20569;-58
2021/12/10 02:35:14;;;;;;;85.87;45.80;;;;;;;6.36;91.26;98467.28;5110318;28;20196;-58
2021/12/10 02:37:42;;;;;;;91.13;44.37;;;;;;;6.60;91.89;98493.16;5110431;28;20194;-58
2021/12/10 02:40:12;;;;;;;99.40;44.97;;;;;;;6.60;91.91;98497.41;5110473;28;20285;-58
2021/12/10 02:42:40;;;;;;;89.00;45.20;;;;;;;6.62;92.50;98505.97;5110557;28;20253;-58
2021/12/10 02:45:08;;;;;;;85.23;45.47;;;;;;;6.53;92.18;98496.47;5110403;28;20192;-58
2021/12/10 02:47:35;;;;;;;87.17;45.10;;;;;;;6.40;92.55;98475.00;5111522;28;20202;-58
2021/12/10 02:50:08;;;;;;;85.47;45.03;;;;;;;6.57;93.11;98507.56;5114552;28;20215;-58
2021/12/10 02:52:35;;;;;;;92.50;45.53;;;;;;;6.61;92.91;98501.69;5114510;28;20277;-58
2021/12/10 02:55:02;;;;;;;100.93;49.10;;;;;;;6.52;93.12;98521.13;5114625;28;20209;-58
2021/12/10 02:57:31;;;;;;;97.93;46.53;;;;;;;6.52;93.80;98520.25;5114434;28;20198;-58
2021/12/10 02:59:58;;;;;;;102.27;46.77;;;;;;;6.56;94.69;98503.31;5114278;28;20196;-58
2021/12/10 03:02:26;;;;;;;100.73;47.60;;;;;;;6.42;95.48;98510.75;5114310;28;20236;-58
2021/12/10 03:04:53;;;;;;;119.20;49.93;;;;;;;6.54;95.37;98508.38;5114026;28;20248;-58
2021/12/10 03:07:22;;;;;;;98.20;47.97;;;;;;;6.57;95.14;98538.19;5114331;28;20198;-58
2021/12/10 03:09:52;;;;;;;88.47;45.30;;;;;;;6.57;95.40;98540.75;5114129;28;20191;-58
2021/12/10 03:12:21;;;;;;;88.33;47.03;;;;;;;6.61;95.28;98545.94;5114029;28;20189;-58
2021/12/10 03:14:57;;;;;;;95.20;46.60;;;;;;;6.69;94.89;98546.91;5114125;28;20195;-58
2021/12/10 03:17:27;;;;;;;90.90;45.90;;;;;;;6.73;94.39;98535.91;5113912;28;20669;-59
2021/12/10 03:19:55;;;;;;;89.40;44.80;;;;;;;6.74;94.38;98495.94;5114035;28;20287;-59
2021/12/10 03:22:23;;;;;;;99.03;46.43;;;;;;;6.79;93.82;98522.38;5113701;28;20214;-59
2021/12/10 03:24:52;;;;;;;84.50;44.03;;;;;;;6.84;93.75;98492.72;5113541;28;20192;-60
2021/12/10 03:27:21;;;;;;;77.77;43.10;;;;;;;6.88;93.98;98494.44;5113885;28;20258;-59
2021/12/10 03:29:50;;;;;;;84.43;43.20;;;;;;;6.93;93.52;98531.13;5113377;28;20220;-59
2021/12/10 03:32:21;;;;;;;87.27;44.27;;;;;;;6.89;93.63;98509.81;5113599;28;20195;-59
2021/12/10 03:34:49;;;;;;;99.80;45.07;;;;;;;6.96;93.18;98490.31;5113679;28;20198;-59
2021/12/10 03:37:19;;;;;;;87.33;43.63;;;;;;;6.86;93.65;98494.44;5113472;28;20233;-59
2021/12/10 03:39:47;;;;;;;95.90;45.13;;;;;;;6.92;94.23;98478.34;5113508;28;20199;-59
2021/12/10 03:42:15;;;;;;;87.60;42.37;;;;;;;6.98;94.28;98478.41;5113432;28;20225;-59
2021/12/10 03:44:42;;;;;;;85.27;42.93;;;;;;;7.02;94.15;98478.50;5113651;28;20191;-59
2021/12/10 03:47:11;;;;;;;86.57;42.63;;;;;;;7.06;93.91;98489.59;5113299;28;20659;-59
2021/12/10 03:49:39;;;;;;;95.73;45.03;;;;;;;7.03;93.93;98476.81;5113490;28;20199;-59
2021/12/10 03:52:08;;;;;;;92.10;42.50;;;;;;;7.08;93.94;98467.50;5113336;28;20188;-60
2021/12/10 03:54:36;;;;;;;71.77;41.37;;;;;;;7.09;93.98;98461.53;5113124;28;20250;-59
2021/12/10 03:57:05;;;;;;;90.53;43.40;;;;;;;7.10;93.81;98470.94;5113090;28;20292;-59
2021/12/10 03:59:34;;;;;;;106.87;55.53;;;;;;;7.19;93.88;98460.84;5112024;28;20513;-59
2021/12/10 04:02:00;;;;;;;89.03;43.60;;;;;;;7.20;93.21;98429.34;5112881;28;20319;-59
2021/12/10 04:04:32;;;;;;;97.10;44.53;;;;;;;7.30;93.54;98445.66;5112966;28;20197;-60
2021/12/10 04:07:02;;;;;;;93.10;45.33;;;;;;;7.29;93.71;98416.69;5112865;28;20196;-59
2021/12/10 04:09:29;;;;;;;89.97;41.43;;;;;;;7.06;93.97;98382.34;5112831;28;20288;-59
2021/12/10 04:11:57;;;;;;;89.90;42.30;;;;;;;7.02;94.79;98378.06;5112743;28;20187;-59
2021/12/10 04:14:24;;;;;;;84.70;44.17;;;;;;;7.02;94.87;98413.81;5112887;28;20593;-59
2021/12/10 04:16:55;;;;;;;92.20;43.80;;;;;;;6.95;95.00;98389.03;5112707;28;20192;-60
2021/12/10 04:19:24;;;;;;;89.47;43.83;;;;;;;6.93;95.46;98417.09;5113270;28;20187;-59
2021/12/10 04:21:56;;;;;;;92.03;44.60;;;;;;;6.96;95.66;98421.38;5112605;28;20219;-59
2021/12/10 04:24:26;;;;;;;85.67;45.43;;;;;;;6.98;95.42;98414.59;5112895;28;20196;-59
2021/12/10 04:26:54;;;;;;;84.37;43.30;;;;;;;6.96;95.38;98424.78;5112572;28;20198;-59
2021/12/10 04:29:21;;;;;;;78.63;42.60;;;;;;;6.99;95.41;98412.06;5112407;28;20187;-59
2021/12/10 04:31:49;;;;;;;88.73;43.97;;;;;;;7.08;94.54;98419.00;5112622;28;20192;-59
2021/12/10 04:34:16;;;;;;;78.17;44.03;;;;;;;7.09;94.68;98426.66;5112555;28;20187;-59
2021/12/10 04:36:43;;;;;;;84.60;44.37;;;;;;;7.11;94.10;98444.56;5112231;28;20190;-60
2021/12/10 04:39:12;;;;;;;83.57;44.53;;;;;;;7.14;93.77;98454.81;5112462;28;20194;-59
2021/12/10 04:41:39;;;;;;;95.50;44.80;;;;;;;7.13;93.53;98468.44;5112126;28;20218;-59
2021/12/10 04:44:07;;;;;;;78.30;44.17;;;;;;;7.17;93.67;98456.56;5112120;28;20279;-60
2021/12/10 04:46:34;;;;;;;76.83;42.80;;;;;;;7.13;93.19;98470.97;5112453;28;20230;-59
2021/12/10 04:49:04;;;;;;;74.77;42.53;;;;;;;7.14;93.67;98482.91;5111999;28;20202;-59
2021/12/10 04:51:34;;;;;;;85.03;41.63;;;;;;;7.09;93.12;98500.72;5112125;28;20195;-60
2021/12/10 04:54:02;;;;;;;75.73;42.13;;;;;;;7.03;93.80;98452.09;5112330;28;21113;-59
2021/12/10 04:56:31;;;;;;;75.70;42.30;;;;;;;6.90;94.66;98483.41;5112097;28;20198;-59
2021/12/10 04:58:59;;;;;;;77.20;40.83;;;;;;;6.89;94.75;98496.19;5112156;28;20190;-59
2021/12/10 05:01:27;;;;;;;76.37;42.10;;;;;;;6.92;94.42;98483.47;5111736;28;20654;-59
2021/12/10 05:03:54;;;;;;;73.73;42.87;;;;;;;6.92;94.79;98478.34;5111722;28;20287;-59
2021/12/10 05:06:21;;;;;;;74.53;39.87;;;;;;;6.98;96.04;98480.97;5111536;28;20198;-59
2021/12/10 05:08:48;;;;;;;75.50;38.77;;;;;;;7.07;96.24;98487.06;5111656;28;20653;-59
2021/12/10 05:11:15;;;;;;;72.60;38.50;;;;;;;7.12;95.96;98499.91;5111139;28;20187;-59
2021/12/10 05:13:46;;;;;;;71.87;41.00;;;;;;;7.13;95.64;98486.31;5111523;28;20199;-59
2021/12/10 05:16:14;;;;;;;71.07;39.50;;;;;;;7.14;96.10;98514.41;5111230;28;20197;-59
2021/12/10 05:18:44;;;;;;;69.37;39.27;;;;;;;7.22;96.68;98509.41;5111588;28;20203;-59
2021/12/10 05:21:14;;;;;;;77.10;40.50;;;;;;;7.31;96.99;98501.00;5111637;28;20195;-60
2021/12/10 05:23:42;;;;;;;72.17;38.27;;;;;;;7.40;96.76;98517.31;5111458;28;20220;-60
2021/12/10 05:26:09;;;;;;;67.33;36.53;;;;;;;7.43;96.42;98499.47;5111204;28;20202;-59
2021/12/10 05:28:37;;;;;;;74.20;39.27;;;;;;;7.49;96.38;98509.78;5111469;28;20199;-59
2021/12/10 05:31:05;;;;;;;73.77;38.37;;;;;;;7.44;96.60;98559.97;5111155;28;20221;-59
2021/12/10 05:33:33;;;;;;;67.10;39.07;;;;;;;7.48;96.95;98520.81;5111222;28;20241;-59
2021/12/10 05:36:01;;;;;;;74.73;38.93;;;;;;;7.49;97.31;98514.88;5111252;28;20195;-60
2021/12/10 05:38:31;;;;;;;70.77;35.47;;;;;;;7.56;98.23;98549.03;5111169;28;21033;-60
2021/12/10 05:41:00;;;;;;;67.17;37.03;;;;;;;7.59;98.02;98513.28;5110809;28;20651;-60
2021/12/10 05:43:27;;;;;;;71.37;34.83;;;;;;;7.63;98.43;98532.94;5110769;28;20665;-60
2021/12/10 05:45:55;;;;;;;64.63;36.97;;;;;;;7.66;98.57;98546.59;5110857;28;20194;-59
2021/12/10 05:48:24;;;;;;;67.20;37.43;;;;;;;7.69;99.10;98510.03;5110933;28;20191;-59
2021/12/10 05:50:52;;;;;;;67.17;35.03;;;;;;;7.73;99.04;98516.88;5110761;28;20193;-59
2021/12/10 05:53:19;;;;;;;59.43;34.40;;;;;;;7.70;98.96;98512.59;5110809;28;20189;-60
2021/12/10 05:55:47;;;;;;;66.33;35.90;;;;;;;7.70;98.93;98542.41;5110708;28;20191;-59
2021/12/10 05:58:14;;;;;;;68.63;36.30;;;;;;;7.70;99.26;98524.50;5110794;28;20564;-60
2021/12/10 06:00:43;;;;;;;70.30;36.27;;;;;;;7.65;99.33;98533.81;5110707;28;20191;-59
2021/12/10 06:03:10;;;;;;;61.23;33.60;;;;;;;7.65;99.04;98537.22;5110562;28;20223;-59
2021/12/10 06:05:39;;;;;;;60.40;33.67;;;;;;;7.69;99.75;98549.19;5110524;28;20212;-59
2021/12/10 06:08:06;;;;;;;54.50;33.37;;;;;;;7.68;98.99;98544.94;5110624;28;20200;-59
2021/12/10 06:10:34;;;;;;;54.13;32.27;;;;;;;7.68;99.19;98561.97;5110400;28;20318;-60
2021/12/10 06:13:02;;;;;;;50.70;30.03;;;;;;;7.70;99.23;98561.16;5110345;28;20276;-60
2021/12/10 06:15:29;;;;;;;50.33;29.03;;;;;;;7.70;98.93;98555.19;5110177;28;20203;-59
2021/12/10 06:17:57;;;;;;;47.10;29.00;;;;;;;7.76;99.10;98541.59;5110323;28;20201;-60
2021/12/10 06:20:29;;;;;;;57.17;31.53;;;;;;;7.81;99.46;98529.72;5110374;28;20196;-59
2021/12/10 06:22:59;;;;;;;56.10;31.20;;;;;;;7.84;99.33;98527.22;5112342;28;20317;-59
2021/12/10 06:25:27;;;;;;;53.67;30.07;;;;;;;7.89;99.78;98528.97;5114589;28;20305;-61
2021/12/10 06:27:54;;;;;;;55.00;32.80;;;;;;;8.00;99.97;98527.41;5114467;28;20193;-60
2021/12/10 06:30:24;;;;;;;59.15;37.30;;;;;;;8.05;99.85;98528.31;5113669;28;20802;-59
2021/12/10 06:32:54;;;;;;;56.40;32.40;;;;;;;8.11;99.46;98535.19;5114618;28;20566;-59
2021/12/10 06:35:22;;;;;;;53.27;31.07;;;;;;;8.10;99.58;98531.75;5114326;28;20190;-59
2021/12/10 06:37:51;;;;;;;56.43;33.50;;;;;;;8.18;99.54;98542.09;5114676;28;20195;-59
2021/12/10 06:40:23;;;;;;;58.13;32.07;;;;;;;8.23;99.62;98522.53;5114123;28;20288;-59
2021/12/10 06:42:50;;;;;;;57.17;31.93;;;;;;;8.23;99.77;98491.81;5114213;28;20223;-59
2021/12/10 06:45:20;;;;;;;51.50;30.93;;;;;;;8.22;99.46;98496.09;5113963;28;20280;-60
2021/12/10 06:47:48;;;;;;;51.70;32.13;;;;;;;8.28;100.00;98511.53;5114395;28;20584;-61
2021/12/10 06:50:16;;;;;;;53.03;29.60;;;;;;;8.38;100.00;98515.00;5114084;28;20223;-60
2021/12/10 06:52:44;;;;;;;49.97;31.40;;;;;;;8.46;99.94;98500.59;5114058;28;20218;-63
2021/12/10 06:55:12;;;;;;;53.10;31.40;;;;;;;8.50;99.81;98511.72;5113928;28;20680;-60
2021/12/10 06:57:41;;;;;;;58.87;33.63;;;;;;;8.47;99.26;98511.69;5114084;28;20739;-59
2021/12/10 07:00:11;;;;;;;47.77;30.43;;;;;;;8.50;99.14;98502.34;5113896;28;20663;-60
2021/12/10 07:02:38;;;;;;;53.80;32.80;;;;;;;8.55;99.13;98481.88;5094396;28;20223;-59
2021/12/10 07:05:06;;;;;;;57.27;33.03;;;;;;;8.61;98.80;98495.59;5093592;28;20190;-59
2021/12/10 07:07:33;;;;;;;61.57;33.33;;;;;;;8.64;98.62;98505.88;5092916;28;20190;-59
2021/12/10 07:10:00;;;;;;;66.00;36.93;;;;;;;8.69;98.72;98498.22;5093087;28;20660;-60
2021/12/10 07:12:28;;;;;;;62.53;36.43;;;;;;;8.82;98.17;98484.66;5092941;28;20193;-60
2021/12/10 07:15:00;;;;;;;61.23;36.83;;;;;;;8.92;98.13;98498.38;5093419;28;20194;-60
2021/12/10 07:17:27;;;;;;;58.70;34.83;;;;;;;9.03;98.41;98502.75;5093451;28;20298;-60
2021/12/10 07:19:54;;;;;;;62.37;36.63;;;;;;;9.12;98.25;98484.84;5093137;28;20221;-59
2021/12/10 07:22:21;;;;;;;63.63;37.90;;;;;;;9.25;97.69;98488.34;5092944;28;20245;-61
2021/12/10 07:24:48;;;;;;;60.87;37.03;;;;;;;9.29;97.25;98501.16;5083776;28;20194;-61
2021/12/10 07:27:14;;;;;;;56.80;33.87;;;;;;;9.37;97.07;98522.56;5080497;28;20223;-63
2021/12/10 07:29:42;;;;;;;60.23;36.20;;;;;;;9.46;96.75;98543.13;5072409;28;20314;-59
2021/12/10 07:32:10;;;;;;;54.03;31.90;;;;;;;9.50;96.67;98549.16;5087587;28;20200;-60
2021/12/10 07:34:37;;;;;;;59.50;35.37;;;;;;;9.44;96.33;98567.06;5104540;28;20232;-60
2021/12/10 07:37:07;;;;;;;62.93;35.33;;;;;;;9.47;96.13;98577.31;5103972;28;20193;-60
2021/12/10 07:39:35;;;;;;;74.10;38.07;;;;;;;9.60;96.75;98578.25;5092919;28;21134;-60
2021/12/10 07:42:02;;;;;;;60.43;36.07;;;;;;;9.65;96.94;98556.03;5093021;28;20284;-59
2021/12/10 07:44:29;;;;;;;56.37;36.50;;;;;;;9.73;96.79;98552.66;5092916;28;20654;-60
2021/12/10 07:46:56;;;;;;;59.07;37.13;;;;;;;9.78;95.56;98576.63;5092951;28;20270;-59
2021/12/10 07:49:29;;;;;;;61.83;38.23;;;;;;;9.66;94.70;98579.13;5092454;28;20195;-60
2021/12/10 07:51:57;;;;;;;64.93;39.13;;;;;;;9.59;95.08;98545.75;5093058;28;20179;-60
2021/12/10 07:54:24;;;;;;;66.20;38.63;;;;;;;9.85;95.63;98573.25;5092337;28;20277;-61
2021/12/10 07:56:52;;;;;;;61.47;38.00;;;;;;;10.03;94.95;98564.75;5092478;28;20197;-60
2021/12/10 07:59:19;;;;;;;54.97;36.60;;;;;;;10.18;94.47;98546.88;5092657;28;20213;-61
2021/12/10 08:01:46;;;;;;;61.83;36.83;;;;;;;10.34;93.76;98545.19;5092699;28;20671;-57
2021/12/10 08:04:13;;;;;;;59.10;37.57;;;;;;;10.33;93.45;98553.75;5102560;28;20222;-57
2021/12/10 08:06:41;;;;;;;51.47;34.00;;;;;;;10.40;93.01;98558.91;5112931;28;20190;-57
2021/12/10 08:09:10;;;;;;;58.13;33.87;;;;;;;10.52;92.58;98570.91;5112373;28;20198;-56
2021/12/10 08:11:39;;;;;;;46.33;30.63;;;;;;;10.54;92.17;98579.47;5112371;28;20289;-57
2021/12/10 08:14:06;;;;;;;51.97;33.10;;;;;;;10.71;92.50;98572.66;5112321;28;20596;-56
2021/12/10 08:16:33;;;;;;;50.47;32.93;;;;;;;10.79;91.72;98565.78;5112172;28;20609;-57
2021/12/10 08:19:00;;;;;;;43.53;29.67;;;;;;;10.90;91.13;98565.78;5112188;28;20561;-57
2021/12/10 08:21:27;;;;;;;44.70;30.27;;;;;;;10.95;91.04;98564.94;5112392;28;20200;-56
2021/12/10 08:23:55;;;;;;;43.57;28.83;;;;;;;11.09;91.27;98557.22;5112060;28;20300;-57
2021/12/10 08:26:23;;;;;;;46.40;28.83;;;;;;;11.21;90.59;98552.91;5111876;28;20190;-57
2021/12/10 08:28:51;;;;;;;41.63;27.90;;;;;;;11.31;90.31;98545.19;5112275;28;20193;-57
2021/12/10 08:31:18;;;;;;;41.33;26.43;;;;;;;11.34;90.09;98545.19;5112021;28;20708;-56
2021/12/10 08:33:48;;;;;;;39.40;27.23;;;;;;;11.39;89.97;98546.88;5111786;28;20185;-57
2021/12/10 08:36:18;;;;;;;42.63;25.33;;;;;;;11.47;89.49;98544.28;5088066;28;20213;-60
2021/12/10 08:38:46;;;;;;;38.00;25.03;;;;;;;11.49;89.02;98545.13;5072167;28;20206;-60
2021/12/10 08:41:17;;;;;;;37.80;25.80;;;;;;;11.44;89.10;98552.00;5071219;28;20298;-60
2021/12/10 08:43:46;;;;;;;41.67;26.03;;;;;;;11.23;88.76;98515.19;5070762;28;20219;-61
2021/12/10 08:46:14;;;;;;;32.70;22.80;;;;;;;11.43;88.72;98533.13;5069989;28;20187;-60
2021/12/10 08:48:42;;;;;;;32.63;23.93;;;;;;;11.53;88.08;98536.56;5070606;28;20286;-61
2021/12/10 08:51:12;;;;;;;35.27;24.63;;;;;;;11.52;87.89;98555.41;5071043;28;20199;-60
2021/12/10 08:53:39;;;;;;;36.97;24.13;;;;;;;11.35;88.87;98528.88;5071157;28;20277;-60
2021/12/10 08:56:06;;;;;;;35.70;24.17;;;;;;;11.35;89.26;98526.28;5070941;28;20718;-60
2021/12/10 08:58:35;;;;;;;39.50;24.43;;;;;;;11.47;88.95;98545.16;5070765;28;20195;-60
2021/12/10 09:01:06;;;;;;;35.90;23.37;;;;;;;11.54;87.98;98554.53;5071167;28;20188;-61
2021/12/10 09:03:34;;;;;;;35.33;22.30;;;;;;;11.59;87.56;98526.25;5070585;28;20301;-61
2021/12/10 09:06:01;;;;;;;32.53;22.67;;;;;;;11.80;87.42;98531.34;5070705;28;20195;-61
2021/12/10 09:08:28;;;;;;;32.30;23.20;;;;;;;12.02;87.18;98527.81;5070631;28;20201;-61
2021/12/10 09:10:55;;;;;;;39.47;25.20;;;;;;;11.87;87.16;98524.47;5070608;28;20195;-61
2021/12/10 09:13:24;;;;;;;35.83;24.47;;;;;;;12.03;87.80;98505.50;5070714;28;20191;-61
2021/12/10 09:15:56;;;;;;;35.40;23.70;;;;;;;12.32;86.45;98491.56;5070364;28;20245;-61
2021/12/10 09:18:23;;;;;;;39.40;25.27;;;;;;;12.53;85.92;98497.41;5070436;28;20191;-61
2021/12/10 09:20:54;;;;;;;34.03;23.63;;;;;;;12.66;85.15;98501.63;5070391;28;20195;-61
2021/12/10 09:23:24;;;;;;;31.93;23.40;;;;;;;12.75;85.26;98496.38;5069960;28;20679;-61
2021/12/10 09:25:53;;;;;;;28.63;21.00;;;;;;;12.88;83.09;98498.84;5069758;28;20283;-59
2021/12/10 09:28:20;;;;;;;26.93;19.33;;;;;;;12.85;83.25;98475.69;5070230;28;20191;-61
2021/12/10 09:30:51;;;;;;;24.93;18.63;;;;;;;13.04;82.38;98486.69;5069858;28;20198;-62
2021/12/10 09:33:20;;;;;;;26.80;19.40;;;;;;;13.15;82.45;98491.75;5068897;28;20282;-60
2021/12/10 09:35:49;;;;;;;21.73;17.53;;;;;;;13.23;82.11;98508.88;5068834;28;20274;-61
2021/12/10 09:38:16;;;;;;;25.83;18.93;;;;;;;13.15;81.88;98521.00;5068942;28;20191;-60
2021/12/10 09:40:49;;;;;;;24.93;17.93;;;;;;;13.15;81.84;98508.09;5069303;28;20195;-60
2021/12/10 09:43:17;;;;;;;24.20;18.13;;;;;;;13.05;81.82;98505.59;5066816;28;20223;-60
2021/12/10 09:45:44;;;;;;;26.73;19.63;;;;;;;13.06;82.79;98510.72;5066316;28;20199;-60
2021/12/10 09:48:14;;;;;;;40.83;28.73;;;;;;;13.12;82.79;98477.19;5066341;28;20191;-62
2021/12/10 09:50:47;;;;;;;23.63;17.10;;;;;;;13.08;81.53;98480.63;5066916;28;20256;-61
2021/12/10 09:53:15;;;;;;;28.33;18.23;;;;;;;13.11;81.72;98490.94;5066354;28;20199;-61
2021/12/10 09:55:43;;;;;;;28.40;19.97;;;;;;;13.28;83.12;98489.03;5067735;28;20207;-61
2021/12/10 09:58:10;;;;;;;26.93;17.87;;;;;;;13.42;82.82;98482.00;5069294;28;20555;-61
2021/12/10 10:00:39;;;;;;;24.43;17.27;;;;;;;13.50;81.15;98477.59;5069938;28;20314;-62
2021/12/10 10:03:09;;;;;;;27.60;17.87;;;;;;;13.40;81.10;98468.28;5069471;28;20302;-61
2021/12/10 10:05:37;;;;;;;23.83;17.53;;;;;;;13.30;81.30;98484.72;5069587;28;20670;-61
2021/12/10 10:08:10;;;;;;;26.03;20.47;;;;;;;13.32;82.11;98479.56;5069340;28;20195;-62
2021/12/10 10:10:41;;;;;;;32.30;23.57;;;;;;;13.26;82.36;98482.19;5068818;28;20238;-61
2021/12/10 10:13:11;;;;;;;26.17;19.33;;;;;;;13.09;83.41;98492.69;5069016;28;20310;-60
2021/12/10 10:15:41;;;;;;;33.17;23.40;;;;;;;13.09;83.92;98491.81;5069080;28;20283;-61
2021/12/10 10:18:11;;;;;;;39.63;25.20;;;;;;;12.89;84.61;98479.94;5069188;28;20196;-61
2021/12/10 10:20:42;;;;;;;34.27;24.57;;;;;;;12.86;84.70;98482.53;5069110;28;20191;-61
2021/12/10 10:23:10;;;;;;;34.47;24.47;;;;;;;12.91;84.83;98490.25;5069194;28;20227;-62
2021/12/10 10:25:40;;;;;;;32.17;23.03;;;;;;;12.96;84.36;98483.31;5069203;28;20202;-60
2021/12/10 10:28:10;;;;;;;35.73;23.67;;;;;;;12.93;84.31;98476.47;5069798;28;20206;-61
2021/12/10 10:30:39;;;;;;;35.03;24.20;;;;;;;12.97;84.98;98477.28;5069398;28;20304;-61
2021/12/10 10:33:09;;;;;;;38.87;26.47;;;;;;;13.05;84.85;98485.78;5069365;28;20219;-62
2021/12/10 10:35:39;;;;;;;36.70;26.57;;;;;;;13.12;84.33;98453.09;5069237;28;20345;-62
2021/12/10 10:38:07;;;;;;;38.20;25.80;;;;;;;13.13;84.31;98449.66;5069210;28;20634;-61
2021/12/10 10:40:39;;;;;;;42.47;28.90;;;;;;;13.09;85.03;98437.66;5069386;28;20659;-61
2021/12/10 10:43:07;;;;;;;34.00;24.47;;;;;;;13.20;84.78;98428.94;5069281;28;20612;-61
2021/12/10 10:45:36;;;;;;;43.47;28.07;;;;;;;13.20;84.80;98416.03;5069323;28;20282;-60
2021/12/10 10:48:05;;;;;;;39.47;28.63;;;;;;;13.29;84.50;98413.38;5068989;28;20689;-62
2021/12/10 10:50:36;;;;;;;34.07;25.60;;;;;;;12.97;83.77;98371.56;5068843;28;20287;-62
2021/12/10 10:53:09;;;;;;;37.20;28.07;;;;;;;13.42;83.77;98412.34;5068681;28;20235;-62
2021/12/10 10:55:40;;;;;;;41.63;28.00;;;;;;;13.37;83.22;98402.94;5069056;28;20690;-61
2021/12/10 10:58:10;;;;;;;37.40;25.43;;;;;;;13.26;84.00;98391.91;5068830;28;20203;-60
2021/12/10 11:00:46;;;;;;;41.30;27.53;;;;;;;12.99;84.41;98365.53;5069036;28;20196;-61
2021/12/10 11:03:18;;;;;;;46.87;32.87;;;;;;;12.88;85.52;98362.22;5068842;28;20195;-61
2021/12/10 11:05:49;;;;;;;48.93;35.57;;;;;;;13.08;85.99;98386.94;5098704;28;20194;-60
2021/12/10 11:08:27;;;;;;;46.37;32.50;;;;;;;13.38;85.66;98399.47;5101458;28;20205;-60
2021/12/10 11:10:58;;;;;;;48.60;33.23;;;;;;;13.55;84.84;98384.63;5102957;28;20187;-61
2021/12/10 11:13:27;;;;;;;44.23;33.33;;;;;;;13.66;84.33;98377.59;5084409;28;20199;-62
2021/12/10 11:15:59;;;;;;;43.70;32.10;;;;;;;13.75;83.67;98372.31;5093512;28;20179;-61
2021/12/10 11:18:26;;;;;;;46.50;30.30;;;;;;;13.69;82.24;98368.97;5093315;28;20565;-61
2021/12/10 11:20:53;;;;;;;42.33;29.47;;;;;;;13.67;82.81;98383.63;5093346;28;20316;-60
2021/12/10 11:23:25;;;;;;;42.00;31.37;;;;;;;13.80;83.34;98382.56;5093387;28;20198;-61
2021/12/10 11:25:55;;;;;;;40.63;29.27;;;;;;;13.68;82.53;98375.03;5094492;28;20196;-60
2021/12/10 11:28:26;;;;;;;41.27;30.07;;;;;;;13.73;82.74;98407.63;5092970;28;20187;-61
2021/12/10 11:31:02;;;;;;;41.00;27.83;;;;;;;13.55;83.46;98400.97;5092731;28;20223;-61
2021/12/10 11:33:31;;;;;;;46.73;31.43;;;;;;;13.53;84.50;98383.81;5092786;28;20259;-61
2021/12/10 11:36:01;;;;;;;41.47;29.07;;;;;;;13.29;84.75;98387.56;5092767;28;20306;-60
2021/12/10 11:38:32;;;;;;;45.37;31.47;;;;;;;13.14;86.05;98410.09;5092774;28;20656;-60